Scholes International At Galveston Airport Galveston US
ICAO: KGLS
IATA: GLS
Category: Medium
Scheduled Services: No

Elevation: 6 ft
TransAlt. 18000 ft.

Airport Communications:
HOUSTON APP/DEP:134.45
ASOS:119.275
CLNC DEL:135.35
CTAF:120.575
GND:118.625
MONTGOMERY CO RDO:122.15
TWR:120.575
UNICOM:123.05

KGLS Zoom In..

Runways:

(A) RW 14 length 6000 ft width 150 ft
ILS 111.70 / hdg 138

(B) RW 18 length 6001 ft width 150 ft
---- / hdg 179

(C) RW 32 length 6000 ft width 150 ft
---- / hdg 318

(D) RW 36 length 6001 ft width 150 ft
---- / hdg 359

Location; KGLS
Day. 21 / Time. 13.52 Zulu
* Altimeter: 30.01
* Temperature: 25° c. 77°f.
* Wind from: 180° Speed 11 kn.
Dewpoint: 23° c.
Visibility: 7 Statute Miles.
Clouds: Scattered 1600 ft.
Clouds: Broken 5500 ft.
Clouds: Overcast 7500 ft.
Conditions: Light Rain.

KGLS 211352Z 18011KT 7SM -RA SCT016 BKN055 OVC075 25/23 A3001 RMK AO2 LTG DSNT N RAB35 TSB33E50 SLP160 P0010 T02500233


Wind From 180°
Speed 11 kn.

 
 
jpsmedia.com for Web Design SOUNDCLOUD worldairports.se 2018   terms of use